sensor_id;sensor_type;location;lat;lon;timestamp;P1;durP1;ratioP1;P2;durP2;ratioP2
22172;SDS011;11252;50.596;17.648;2023-12-28T00:02:18;18.60;;;15.23;;
22172;SDS011;11252;50.596;17.648;2023-12-28T00:04:45;32.20;;;12.63;;
22172;SDS011;11252;50.596;17.648;2023-12-28T00:07:12;16.47;;;10.03;;
22172;SDS011;11252;50.596;17.648;2023-12-28T00:09:39;17.70;;;9.97;;
22172;SDS011;11252;50.596;17.648;2023-12-28T00:12:07;20.13;;;9.50;;
22172;SDS011;11252;50.596;17.648;2023-12-28T00:14:34;19.50;;;14.27;;
22172;SDS011;11252;50.596;17.648;2023-12-28T00:17:01;12.77;;;9.73;;
22172;SDS011;11252;50.596;17.648;2023-12-28T00:19:28;14.00;;;12.77;;
22172;SDS011;11252;50.596;17.648;2023-12-28T00:21:55;15.13;;;10.57;;
22172;SDS011;11252;50.596;17.648;2023-12-28T00:24:23;23.07;;;13.77;;
22172;SDS011;11252;50.596;17.648;2023-12-28T00:26:50;47.30;;;16.47;;
22172;SDS011;11252;50.596;17.648;2023-12-28T00:29:17;16.57;;;7.90;;
22172;SDS011;11252;50.596;17.648;2023-12-28T00:31:45;5.10;;;4.77;;
22172;SDS011;11252;50.596;17.648;2023-12-28T00:34:12;9.93;;;8.97;;
22172;SDS011;11252;50.596;17.648;2023-12-28T00:36:39;14.10;;;6.63;;
22172;SDS011;11252;50.596;17.648;2023-12-28T00:39:07;14.53;;;8.10;;
22172;SDS011;11252;50.596;17.648;2023-12-28T00:41:34;8.47;;;7.77;;
22172;SDS011;11252;50.596;17.648;2023-12-28T00:44:01;8.07;;;6.90;;
22172;SDS011;11252;50.596;17.648;2023-12-28T00:46:29;13.30;;;7.53;;
22172;SDS011;11252;50.596;17.648;2023-12-28T00:48:56;4.80;;;4.40;;
22172;SDS011;11252;50.596;17.648;2023-12-28T00:51:23;5.27;;;4.87;;
22172;SDS011;11252;50.596;17.648;2023-12-28T00:53:50;7.50;;;6.97;;
22172;SDS011;11252;50.596;17.648;2023-12-28T00:56:17;5.30;;;4.80;;
22172;SDS011;11252;50.596;17.648;2023-12-28T00:58:46;4.37;;;4.00;;
22172;SDS011;11252;50.596;17.648;2023-12-28T01:01:13;3.20;;;3.00;;
22172;SDS011;11252;50.596;17.648;2023-12-28T01:03:41;4.43;;;4.07;;
22172;SDS011;11252;50.596;17.648;2023-12-28T01:06:09;2.33;;;2.23;;
22172;SDS011;11252;50.596;17.648;2023-12-28T01:08:36;1.67;;;1.57;;
22172;SDS011;11252;50.596;17.648;2023-12-28T01:11:03;2.57;;;2.40;;
22172;SDS011;11252;50.596;17.648;2023-12-28T01:13:30;3.23;;;2.23;;
22172;SDS011;11252;50.596;17.648;2023-12-28T01:15:57;1.10;;;1.10;;
22172;SDS011;11252;50.596;17.648;2023-12-28T01:18:25;2.20;;;2.03;;
22172;SDS011;11252;50.596;17.648;2023-12-28T01:20:52;4.27;;;3.90;;
22172;SDS011;11252;50.596;17.648;2023-12-28T01:23:20;0.83;;;0.83;;
22172;SDS011;11252;50.596;17.648;2023-12-28T01:25:47;3.77;;;2.97;;
22172;SDS011;11252;50.596;17.648;2023-12-28T01:28:14;1.17;;;1.17;;
22172;SDS011;11252;50.596;17.648;2023-12-28T01:30:41;1.53;;;1.43;;
22172;SDS011;11252;50.596;17.648;2023-12-28T01:33:10;0.70;;;0.70;;
22172;SDS011;11252;50.596;17.648;2023-12-28T01:35:38;1.47;;;1.40;;
22172;SDS011;11252;50.596;17.648;2023-12-28T01:38:05;2.47;;;1.60;;
22172;SDS011;11252;50.596;17.648;2023-12-28T01:40:32;0.90;;;0.90;;
22172;SDS011;11252;50.596;17.648;2023-12-28T01:42:59;1.33;;;1.23;;
22172;SDS011;11252;50.596;17.648;2023-12-28T01:45:26;1.87;;;1.80;;
22172;SDS011;11252;50.596;17.648;2023-12-28T01:47:53;0.40;;;0.40;;
22172;SDS011;11252;50.596;17.648;2023-12-28T01:50:24;1.33;;;1.27;;
22172;SDS011;11252;50.596;17.648;2023-12-28T01:52:54;2.17;;;2.07;;
22172;SDS011;11252;50.596;17.648;2023-12-28T01:55:23;2.10;;;2.00;;
22172;SDS011;11252;50.596;17.648;2023-12-28T01:57:51;1.17;;;1.17;;
22172;SDS011;11252;50.596;17.648;2023-12-28T02:00:19;1.07;;;1.07;;
22172;SDS011;11252;50.596;17.648;2023-12-28T02:02:48;0.73;;;0.73;;
22172;SDS011;11252;50.596;17.648;2023-12-28T02:05:16;2.20;;;1.90;;
22172;SDS011;11252;50.596;17.648;2023-12-28T02:07:44;1.53;;;1.43;;
22172;SDS011;11252;50.596;17.648;2023-12-28T02:10:11;0.90;;;0.90;;
22172;SDS011;11252;50.596;17.648;2023-12-28T02:12:38;1.03;;;1.03;;
22172;SDS011;11252;50.596;17.648;2023-12-28T02:15:05;1.07;;;1.07;;
22172;SDS011;11252;50.596;17.648;2023-12-28T02:17:36;2.73;;;1.40;;
22172;SDS011;11252;50.596;17.648;2023-12-28T02:20:08;1.50;;;1.40;;
22172;SDS011;11252;50.596;17.648;2023-12-28T02:22:37;5.17;;;3.10;;
22172;SDS011;11252;50.596;17.648;2023-12-28T02:25:07;1.80;;;1.73;;
22172;SDS011;11252;50.596;17.648;2023-12-28T02:27:36;1.57;;;1.47;;
22172;SDS011;11252;50.596;17.648;2023-12-28T02:30:09;0.70;;;0.70;;
22172;SDS011;11252;50.596;17.648;2023-12-28T02:32:51;0.63;;;0.63;;
22172;SDS011;11252;50.596;17.648;2023-12-28T02:38:05;1.27;;;1.27;;
22172;SDS011;11252;50.596;17.648;2023-12-28T02:40:39;0.90;;;0.90;;
22172;SDS011;11252;50.596;17.648;2023-12-28T02:43:08;0.90;;;0.90;;
22172;SDS011;11252;50.596;17.648;2023-12-28T02:45:36;0.93;;;0.93;;
22172;SDS011;11252;50.596;17.648;2023-12-28T02:48:04;0.40;;;0.40;;
22172;SDS011;11252;50.596;17.648;2023-12-28T02:50:33;0.93;;;0.93;;
22172;SDS011;11252;50.596;17.648;2023-12-28T02:53:00;0.40;;;0.40;;
22172;SDS011;11252;50.596;17.648;2023-12-28T02:55:27;1.53;;;1.47;;
22172;SDS011;11252;50.596;17.648;2023-12-28T02:57:56;1.07;;;1.07;;
22172;SDS011;11252;50.596;17.648;2023-12-28T03:00:27;0.73;;;0.73;;
22172;SDS011;11252;50.596;17.648;2023-12-28T03:02:55;3.93;;;1.20;;
22172;SDS011;11252;50.596;17.648;2023-12-28T03:05:22;1.23;;;0.60;;
22172;SDS011;11252;50.596;17.648;2023-12-28T03:07:49;0.70;;;0.70;;
22172;SDS011;11252;50.596;17.648;2023-12-28T03:10:16;0.40;;;0.40;;
22172;SDS011;11252;50.596;17.648;2023-12-28T03:12:43;0.77;;;0.77;;
22172;SDS011;11252;50.596;17.648;2023-12-28T03:15:10;2.83;;;2.67;;
22172;SDS011;11252;50.596;17.648;2023-12-28T03:17:38;0.63;;;0.63;;
22172;SDS011;11252;50.596;17.648;2023-12-28T03:20:05;0.77;;;0.77;;
22172;SDS011;11252;50.596;17.648;2023-12-28T03:22:33;0.60;;;0.60;;
22172;SDS011;11252;50.596;17.648;2023-12-28T03:25:00;0.60;;;0.60;;
22172;SDS011;11252;50.596;17.648;2023-12-28T03:27:27;1.33;;;1.33;;
22172;SDS011;11252;50.596;17.648;2023-12-28T03:29:54;2.07;;;1.90;;
22172;SDS011;11252;50.596;17.648;2023-12-28T03:32:21;1.90;;;1.80;;
22172;SDS011;11252;50.596;17.648;2023-12-28T03:34:48;1.00;;;1.00;;
22172;SDS011;11252;50.596;17.648;2023-12-28T03:37:15;1.50;;;1.40;;
22172;SDS011;11252;50.596;17.648;2023-12-28T03:39:42;0.40;;;0.40;;
22172;SDS011;11252;50.596;17.648;2023-12-28T03:42:10;2.30;;;2.10;;
22172;SDS011;11252;50.596;17.648;2023-12-28T03:44:37;1.80;;;1.70;;
22172;SDS011;11252;50.596;17.648;2023-12-28T03:47:03;4.33;;;2.63;;
22172;SDS011;11252;50.596;17.648;2023-12-28T03:49:31;0.90;;;0.90;;
22172;SDS011;11252;50.596;17.648;2023-12-28T03:51:58;1.30;;;1.30;;
22172;SDS011;11252;50.596;17.648;2023-12-28T03:54:25;0.37;;;0.37;;
22172;SDS011;11252;50.596;17.648;2023-12-28T03:56:52;1.33;;;1.23;;
22172;SDS011;11252;50.596;17.648;2023-12-28T03:59:20;1.87;;;1.77;;
22172;SDS011;11252;50.596;17.648;2023-12-28T04:01:47;2.00;;;1.90;;
22172;SDS011;11252;50.596;17.648;2023-12-28T04:04:14;0.60;;;0.60;;
22172;SDS011;11252;50.596;17.648;2023-12-28T04:06:41;0.50;;;0.50;;
22172;SDS011;11252;50.596;17.648;2023-12-28T04:09:13;0.30;;;0.30;;
22172;SDS011;11252;50.596;17.648;2023-12-28T04:11:40;1.03;;;1.03;;
22172;SDS011;11252;50.596;17.648;2023-12-28T04:14:08;0.90;;;0.83;;
22172;SDS011;11252;50.596;17.648;2023-12-28T04:16:35;0.70;;;0.70;;
22172;SDS011;11252;50.596;17.648;2023-12-28T04:19:02;0.63;;;0.63;;
22172;SDS011;11252;50.596;17.648;2023-12-28T04:21:29;0.40;;;0.40;;
22172;SDS011;11252;50.596;17.648;2023-12-28T04:23:56;1.03;;;0.87;;
22172;SDS011;11252;50.596;17.648;2023-12-28T04:26:23;0.20;;;0.20;;
22172;SDS011;11252;50.596;17.648;2023-12-28T04:28:50;1.33;;;1.27;;
22172;SDS011;11252;50.596;17.648;2023-12-28T04:31:17;0.40;;;0.40;;
22172;SDS011;11252;50.596;17.648;2023-12-28T04:33:44;1.23;;;1.23;;
22172;SDS011;11252;50.596;17.648;2023-12-28T04:36:12;0.40;;;0.40;;
22172;SDS011;11252;50.596;17.648;2023-12-28T04:38:39;4.63;;;1.17;;
22172;SDS011;11252;50.596;17.648;2023-12-28T04:41:06;0.50;;;0.50;;
22172;SDS011;11252;50.596;17.648;2023-12-28T04:43:35;3.40;;;1.03;;
22172;SDS011;11252;50.596;17.648;2023-12-28T04:46:05;0.60;;;0.60;;
22172;SDS011;11252;50.596;17.648;2023-12-28T04:48:32;0.37;;;0.37;;
22172;SDS011;11252;50.596;17.648;2023-12-28T04:51:04;0.30;;;0.30;;
22172;SDS011;11252;50.596;17.648;2023-12-28T04:53:31;0.40;;;0.40;;
22172;SDS011;11252;50.596;17.648;2023-12-28T04:55:58;0.30;;;0.30;;
22172;SDS011;11252;50.596;17.648;2023-12-28T04:58:25;0.40;;;0.40;;
22172;SDS011;11252;50.596;17.648;2023-12-28T05:00:53;1.47;;;1.37;;
22172;SDS011;11252;50.596;17.648;2023-12-28T05:03:20;1.30;;;0.87;;
22172;SDS011;11252;50.596;17.648;2023-12-28T05:05:47;0.30;;;0.30;;
22172;SDS011;11252;50.596;17.648;2023-12-28T05:08:14;0.67;;;0.67;;
22172;SDS011;11252;50.596;17.648;2023-12-28T05:10:41;0.47;;;0.47;;
22172;SDS011;11252;50.596;17.648;2023-12-28T05:13:08;0.60;;;0.60;;
22172;SDS011;11252;50.596;17.648;2023-12-28T05:15:35;0.37;;;0.37;;
22172;SDS011;11252;50.596;17.648;2023-12-28T05:18:02;0.20;;;0.20;;
22172;SDS011;11252;50.596;17.648;2023-12-28T05:20:31;0.50;;;0.50;;
22172;SDS011;11252;50.596;17.648;2023-12-28T05:22:58;0.50;;;0.50;;
22172;SDS011;11252;50.596;17.648;2023-12-28T05:25:25;0.40;;;0.40;;
22172;SDS011;11252;50.596;17.648;2023-12-28T05:27:52;0.63;;;0.63;;
22172;SDS011;11252;50.596;17.648;2023-12-28T05:30:19;1.80;;;1.60;;
22172;SDS011;11252;50.596;17.648;2023-12-28T05:32:47;1.33;;;1.13;;
22172;SDS011;11252;50.596;17.648;2023-12-28T05:35:14;0.20;;;0.20;;
22172;SDS011;11252;50.596;17.648;2023-12-28T05:37:40;1.00;;;1.00;;
22172;SDS011;11252;50.596;17.648;2023-12-28T05:40:08;1.23;;;1.20;;
22172;SDS011;11252;50.596;17.648;2023-12-28T05:42:36;1.40;;;1.30;;
22172;SDS011;11252;50.596;17.648;2023-12-28T05:45:04;0.50;;;0.50;;
22172;SDS011;11252;50.596;17.648;2023-12-28T05:47:32;0.40;;;0.40;;
22172;SDS011;11252;50.596;17.648;2023-12-28T05:49:59;3.87;;;0.73;;
22172;SDS011;11252;50.596;17.648;2023-12-28T05:52:29;0.30;;;0.30;;
22172;SDS011;11252;50.596;17.648;2023-12-28T05:54:56;0.60;;;0.60;;
22172;SDS011;11252;50.596;17.648;2023-12-28T05:57:23;0.50;;;0.50;;
22172;SDS011;11252;50.596;17.648;2023-12-28T05:59:53;2.20;;;1.30;;
22172;SDS011;11252;50.596;17.648;2023-12-28T06:02:20;11.57;;;2.93;;
22172;SDS011;11252;50.596;17.648;2023-12-28T06:04:47;0.27;;;0.27;;
22172;SDS011;11252;50.596;17.648;2023-12-28T06:07:14;1.33;;;1.23;;
22172;SDS011;11252;50.596;17.648;2023-12-28T06:09:41;2.27;;;1.70;;
22172;SDS011;11252;50.596;17.648;2023-12-28T06:12:08;2.70;;;2.50;;
22172;SDS011;11252;50.596;17.648;2023-12-28T06:14:36;3.40;;;3.10;;
22172;SDS011;11252;50.596;17.648;2023-12-28T06:17:03;10.37;;;7.13;;
22172;SDS011;11252;50.596;17.648;2023-12-28T06:19:30;9.13;;;6.03;;
22172;SDS011;11252;50.596;17.648;2023-12-28T06:21:57;2.70;;;2.30;;
22172;SDS011;11252;50.596;17.648;2023-12-28T06:24:25;3.57;;;2.43;;
22172;SDS011;11252;50.596;17.648;2023-12-28T06:26:52;2.40;;;1.77;;
22172;SDS011;11252;50.596;17.648;2023-12-28T06:29:19;0.60;;;0.60;;
22172;SDS011;11252;50.596;17.648;2023-12-28T06:31:46;0.83;;;0.77;;
22172;SDS011;11252;50.596;17.648;2023-12-28T06:34:13;0.47;;;0.47;;
22172;SDS011;11252;50.596;17.648;2023-12-28T06:36:40;0.70;;;0.70;;
22172;SDS011;11252;50.596;17.648;2023-12-28T06:39:09;0.83;;;0.83;;
22172;SDS011;11252;50.596;17.648;2023-12-28T06:41:36;1.00;;;1.00;;
22172;SDS011;11252;50.596;17.648;2023-12-28T06:44:04;0.70;;;0.70;;
22172;SDS011;11252;50.596;17.648;2023-12-28T06:46:31;0.60;;;0.60;;
22172;SDS011;11252;50.596;17.648;2023-12-28T06:48:58;0.97;;;0.80;;
22172;SDS011;11252;50.596;17.648;2023-12-28T06:51:25;4.17;;;1.13;;
22172;SDS011;11252;50.596;17.648;2023-12-28T06:53:53;0.63;;;0.63;;
22172;SDS011;11252;50.596;17.648;2023-12-28T06:56:20;1.00;;;1.00;;
22172;SDS011;11252;50.596;17.648;2023-12-28T06:58:47;0.90;;;0.90;;
22172;SDS011;11252;50.596;17.648;2023-12-28T07:01:14;0.50;;;0.50;;
22172;SDS011;11252;50.596;17.648;2023-12-28T07:03:41;1.00;;;1.00;;
22172;SDS011;11252;50.596;17.648;2023-12-28T07:06:08;2.67;;;1.73;;
22172;SDS011;11252;50.596;17.648;2023-12-28T07:08:36;0.83;;;0.83;;
22172;SDS011;11252;50.596;17.648;2023-12-28T07:11:03;1.07;;;1.07;;
22172;SDS011;11252;50.596;17.648;2023-12-28T07:13:31;1.40;;;1.37;;
22172;SDS011;11252;50.596;17.648;2023-12-28T07:15:59;3.10;;;2.70;;
22172;SDS011;11252;50.596;17.648;2023-12-28T07:18:27;0.90;;;0.90;;
22172;SDS011;11252;50.596;17.648;2023-12-28T07:20:55;1.70;;;1.60;;
22172;SDS011;11252;50.596;17.648;2023-12-28T07:23:22;0.50;;;0.50;;
22172;SDS011;11252;50.596;17.648;2023-12-28T07:25:50;1.37;;;0.97;;
22172;SDS011;11252;50.596;17.648;2023-12-28T07:28:17;0.70;;;0.70;;
22172;SDS011;11252;50.596;17.648;2023-12-28T07:30:44;1.93;;;1.83;;
22172;SDS011;11252;50.596;17.648;2023-12-28T07:33:11;4.17;;;3.13;;
22172;SDS011;11252;50.596;17.648;2023-12-28T07:35:39;2.73;;;2.53;;
22172;SDS011;11252;50.596;17.648;2023-12-28T07:38:06;4.70;;;4.17;;
22172;SDS011;11252;50.596;17.648;2023-12-28T07:40:33;6.63;;;6.13;;
22172;SDS011;11252;50.596;17.648;2023-12-28T07:43:01;6.33;;;5.80;;
22172;SDS011;11252;50.596;17.648;2023-12-28T07:45:28;1.97;;;1.77;;
22172;SDS011;11252;50.596;17.648;2023-12-28T07:47:56;0.77;;;0.77;;
22172;SDS011;11252;50.596;17.648;2023-12-28T07:50:23;2.87;;;2.60;;
22172;SDS011;11252;50.596;17.648;2023-12-28T07:52:51;4.37;;;4.07;;
22172;SDS011;11252;50.596;17.648;2023-12-28T07:55:18;2.80;;;2.37;;
22172;SDS011;11252;50.596;17.648;2023-12-28T07:57:46;4.77;;;4.33;;
22172;SDS011;11252;50.596;17.648;2023-12-28T08:00:13;1.40;;;1.27;;
22172;SDS011;11252;50.596;17.648;2023-12-28T08:02:41;1.43;;;1.33;;
22172;SDS011;11252;50.596;17.648;2023-12-28T08:05:08;2.33;;;1.10;;
22172;SDS011;11252;50.596;17.648;2023-12-28T08:07:35;11.93;;;3.20;;
22172;SDS011;11252;50.596;17.648;2023-12-28T08:10:02;1.30;;;1.30;;
22172;SDS011;11252;50.596;17.648;2023-12-28T08:12:30;2.33;;;2.13;;
22172;SDS011;11252;50.596;17.648;2023-12-28T08:14:58;3.87;;;3.37;;
22172;SDS011;11252;50.596;17.648;2023-12-28T08:17:28;2.10;;;1.97;;
22172;SDS011;11252;50.596;17.648;2023-12-28T08:19:55;4.73;;;2.57;;
22172;SDS011;11252;50.596;17.648;2023-12-28T08:22:22;5.63;;;5.10;;
22172;SDS011;11252;50.596;17.648;2023-12-28T08:24:49;5.50;;;5.07;;
22172;SDS011;11252;50.596;17.648;2023-12-28T08:27:16;9.40;;;4.37;;
22172;SDS011;11252;50.596;17.648;2023-12-28T08:29:43;7.07;;;3.87;;
22172;SDS011;11252;50.596;17.648;2023-12-28T08:32:11;6.23;;;4.20;;
22172;SDS011;11252;50.596;17.648;2023-12-28T08:34:39;18.03;;;7.93;;
22172;SDS011;11252;50.596;17.648;2023-12-28T08:37:06;13.40;;;11.33;;
22172;SDS011;11252;50.596;17.648;2023-12-28T08:39:34;12.17;;;9.93;;
22172;SDS011;11252;50.596;17.648;2023-12-28T08:42:01;7.87;;;7.00;;
22172;SDS011;11252;50.596;17.648;2023-12-28T08:44:28;5.07;;;2.30;;
22172;SDS011;11252;50.596;17.648;2023-12-28T08:46:55;4.83;;;3.93;;
22172;SDS011;11252;50.596;17.648;2023-12-28T08:49:22;6.90;;;3.87;;
22172;SDS011;11252;50.596;17.648;2023-12-28T08:51:50;4.10;;;1.73;;
22172;SDS011;11252;50.596;17.648;2023-12-28T08:54:17;2.90;;;2.63;;
22172;SDS011;11252;50.596;17.648;2023-12-28T08:56:44;2.10;;;1.50;;
22172;SDS011;11252;50.596;17.648;2023-12-28T08:59:16;0.57;;;0.57;;
22172;SDS011;11252;50.596;17.648;2023-12-28T09:01:43;2.43;;;2.23;;
22172;SDS011;11252;50.596;17.648;2023-12-28T09:04:10;2.40;;;2.20;;
22172;SDS011;11252;50.596;17.648;2023-12-28T09:06:37;3.40;;;1.43;;
22172;SDS011;11252;50.596;17.648;2023-12-28T09:09:05;3.03;;;1.17;;
22172;SDS011;11252;50.596;17.648;2023-12-28T09:11:32;2.00;;;1.73;;
22172;SDS011;11252;50.596;17.648;2023-12-28T09:13:59;2.30;;;1.17;;
22172;SDS011;11252;50.596;17.648;2023-12-28T09:16:27;2.10;;;1.33;;
22172;SDS011;11252;50.596;17.648;2023-12-28T09:18:55;1.17;;;1.17;;
22172;SDS011;11252;50.596;17.648;2023-12-28T09:21:23;0.70;;;0.70;;
22172;SDS011;11252;50.596;17.648;2023-12-28T09:23:52;1.27;;;0.87;;
22172;SDS011;11252;50.596;17.648;2023-12-28T09:26:20;1.47;;;1.37;;
22172;SDS011;11252;50.596;17.648;2023-12-28T09:28:47;0.50;;;0.50;;
22172;SDS011;11252;50.596;17.648;2023-12-28T09:31:14;1.50;;;1.40;;
22172;SDS011;11252;50.596;17.648;2023-12-28T09:33:42;1.50;;;1.17;;
22172;SDS011;11252;50.596;17.648;2023-12-28T09:36:11;2.00;;;1.13;;
22172;SDS011;11252;50.596;17.648;2023-12-28T09:38:39;0.20;;;0.20;;
22172;SDS011;11252;50.596;17.648;2023-12-28T09:41:15;0.20;;;0.20;;
22172;SDS011;11252;50.596;17.648;2023-12-28T09:46:23;0.60;;;0.60;;
22172;SDS011;11252;50.596;17.648;2023-12-28T09:48:53;1.57;;;1.47;;
22172;SDS011;11252;50.596;17.648;2023-12-28T09:51:23;0.40;;;0.40;;
22172;SDS011;11252;50.596;17.648;2023-12-28T09:53:50;0.97;;;0.90;;
22172;SDS011;11252;50.596;17.648;2023-12-28T09:56:17;0.37;;;0.37;;
22172;SDS011;11252;50.596;17.648;2023-12-28T09:58:44;2.50;;;2.20;;
22172;SDS011;11252;50.596;17.648;2023-12-28T10:01:15;1.07;;;0.70;;
22172;SDS011;11252;50.596;17.648;2023-12-28T10:03:43;2.00;;;1.90;;
22172;SDS011;11252;50.596;17.648;2023-12-28T10:06:11;1.20;;;1.10;;
22172;SDS011;11252;50.596;17.648;2023-12-28T10:08:44;0.73;;;0.73;;
22172;SDS011;11252;50.596;17.648;2023-12-28T10:11:18;0.97;;;0.97;;
22172;SDS011;11252;50.596;17.648;2023-12-28T10:13:45;1.63;;;1.13;;
22172;SDS011;11252;50.596;17.648;2023-12-28T10:16:12;1.40;;;0.97;;
22172;SDS011;11252;50.596;17.648;2023-12-28T10:18:42;0.27;;;0.27;;
22172;SDS011;11252;50.596;17.648;2023-12-28T10:21:13;0.33;;;0.33;;
22172;SDS011;11252;50.596;17.648;2023-12-28T10:23:40;0.57;;;0.57;;
22172;SDS011;11252;50.596;17.648;2023-12-28T10:26:07;0.57;;;0.57;;
22172;SDS011;11252;50.596;17.648;2023-12-28T10:28:35;0.23;;;0.23;;
22172;SDS011;11252;50.596;17.648;2023-12-28T10:31:07;1.10;;;1.03;;
22172;SDS011;11252;50.596;17.648;2023-12-28T10:33:35;1.50;;;1.37;;
22172;SDS011;11252;50.596;17.648;2023-12-28T10:36:07;3.30;;;1.43;;
22172;SDS011;11252;50.596;17.648;2023-12-28T10:38:35;0.20;;;0.20;;
22172;SDS011;11252;50.596;17.648;2023-12-28T10:41:07;0.70;;;0.70;;
22172;SDS011;11252;50.596;17.648;2023-12-28T10:43:36;1.33;;;0.80;;
22172;SDS011;11252;50.596;17.648;2023-12-28T10:46:26;2.57;;;2.37;;
22172;SDS011;11252;50.596;17.648;2023-12-28T10:49:10;3.00;;;0.77;;
22172;SDS011;11252;50.596;17.648;2023-12-28T10:51:42;1.27;;;0.60;;
22172;SDS011;11252;50.596;17.648;2023-12-28T10:57:29;4.17;;;3.27;;
22172;SDS011;11252;50.596;17.648;2023-12-28T11:02:38;1.57;;;1.33;;
22172;SDS011;11252;50.596;17.648;2023-12-28T11:05:08;1.27;;;0.60;;
22172;SDS011;11252;50.596;17.648;2023-12-28T11:07:36;0.80;;;0.80;;
22172;SDS011;11252;50.596;17.648;2023-12-28T11:10:05;0.63;;;0.63;;
22172;SDS011;11252;50.596;17.648;2023-12-28T11:12:33;0.50;;;0.50;;
22172;SDS011;11252;50.596;17.648;2023-12-28T11:15:02;1.73;;;1.63;;
22172;SDS011;11252;50.596;17.648;2023-12-28T11:17:34;0.23;;;0.23;;
22172;SDS011;11252;50.596;17.648;2023-12-28T11:20:04;0.30;;;0.30;;
22172;SDS011;11252;50.596;17.648;2023-12-28T11:22:31;0.30;;;0.30;;
22172;SDS011;11252;50.596;17.648;2023-12-28T11:25:00;0.53;;;0.53;;
22172;SDS011;11252;50.596;17.648;2023-12-28T11:27:34;0.40;;;0.40;;
22172;SDS011;11252;50.596;17.648;2023-12-28T11:30:06;0.30;;;0.30;;
22172;SDS011;11252;50.596;17.648;2023-12-28T11:32:35;0.57;;;0.57;;
22172;SDS011;11252;50.596;17.648;2023-12-28T11:35:03;0.43;;;0.43;;
22172;SDS011;11252;50.596;17.648;2023-12-28T11:37:36;0.20;;;0.20;;
22172;SDS011;11252;50.596;17.648;2023-12-28T11:40:10;0.20;;;0.20;;
22172;SDS011;11252;50.596;17.648;2023-12-28T11:42:50;0.20;;;0.20;;
22172;SDS011;11252;50.596;17.648;2023-12-28T11:45:19;3.07;;;0.87;;
22172;SDS011;11252;50.596;17.648;2023-12-28T11:47:58;0.30;;;0.30;;
22172;SDS011;11252;50.596;17.648;2023-12-28T11:50:29;0.20;;;0.20;;
22172;SDS011;11252;50.596;17.648;2023-12-28T11:52:57;0.40;;;0.40;;
22172;SDS011;11252;50.596;17.648;2023-12-28T11:55:25;0.20;;;0.20;;
22172;SDS011;11252;50.596;17.648;2023-12-28T11:57:52;0.53;;;0.53;;
22172;SDS011;11252;50.596;17.648;2023-12-28T12:00:19;0.20;;;0.20;;
22172;SDS011;11252;50.596;17.648;2023-12-28T12:02:47;0.63;;;0.63;;
22172;SDS011;11252;50.596;17.648;2023-12-28T12:05:15;0.30;;;0.30;;
22172;SDS011;11252;50.596;17.648;2023-12-28T12:07:42;0.30;;;0.30;;
22172;SDS011;11252;50.596;17.648;2023-12-28T12:10:13;0.40;;;0.40;;
22172;SDS011;11252;50.596;17.648;2023-12-28T12:12:41;0.30;;;0.30;;
22172;SDS011;11252;50.596;17.648;2023-12-28T12:15:09;0.37;;;0.37;;
22172;SDS011;11252;50.596;17.648;2023-12-28T12:17:36;0.30;;;0.30;;
22172;SDS011;11252;50.596;17.648;2023-12-28T12:20:03;0.33;;;0.33;;
22172;SDS011;11252;50.596;17.648;2023-12-28T12:22:31;0.20;;;0.20;;
22172;SDS011;11252;50.596;17.648;2023-12-28T12:24:59;0.70;;;0.63;;
22172;SDS011;11252;50.596;17.648;2023-12-28T12:27:31;0.60;;;0.53;;
22172;SDS011;11252;50.596;17.648;2023-12-28T12:29:58;0.43;;;0.43;;
22172;SDS011;11252;50.596;17.648;2023-12-28T12:32:25;0.20;;;0.20;;
22172;SDS011;11252;50.596;17.648;2023-12-28T12:34:54;1.70;;;1.23;;
22172;SDS011;11252;50.596;17.648;2023-12-28T12:37:21;1.30;;;1.20;;
22172;SDS011;11252;50.596;17.648;2023-12-28T12:39:50;1.60;;;1.50;;
22172;SDS011;11252;50.596;17.648;2023-12-28T12:42:17;0.57;;;0.57;;
22172;SDS011;11252;50.596;17.648;2023-12-28T12:44:44;0.33;;;0.33;;
22172;SDS011;11252;50.596;17.648;2023-12-28T12:47:12;5.80;;;3.23;;
22172;SDS011;11252;50.596;17.648;2023-12-28T12:49:39;0.70;;;0.70;;
22172;SDS011;11252;50.596;17.648;2023-12-28T12:52:09;0.53;;;0.40;;
22172;SDS011;11252;50.596;17.648;2023-12-28T12:54:37;0.63;;;0.63;;
22172;SDS011;11252;50.596;17.648;2023-12-28T12:57:04;0.73;;;0.70;;
22172;SDS011;11252;50.596;17.648;2023-12-28T12:59:31;0.70;;;0.70;;
22172;SDS011;11252;50.596;17.648;2023-12-28T13:02:00;0.70;;;0.70;;
22172;SDS011;11252;50.596;17.648;2023-12-28T13:04:27;1.23;;;1.13;;
22172;SDS011;11252;50.596;17.648;2023-12-28T13:06:54;1.10;;;1.10;;
22172;SDS011;11252;50.596;17.648;2023-12-28T13:09:21;0.23;;;0.23;;
22172;SDS011;11252;50.596;17.648;2023-12-28T13:11:48;0.40;;;0.40;;
22172;SDS011;11252;50.596;17.648;2023-12-28T13:14:16;0.20;;;0.20;;
22172;SDS011;11252;50.596;17.648;2023-12-28T13:16:44;0.40;;;0.40;;
22172;SDS011;11252;50.596;17.648;2023-12-28T13:19:13;0.57;;;0.57;;
22172;SDS011;11252;50.596;17.648;2023-12-28T13:21:40;0.57;;;0.57;;
22172;SDS011;11252;50.596;17.648;2023-12-28T13:24:07;0.47;;;0.47;;
22172;SDS011;11252;50.596;17.648;2023-12-28T13:26:35;0.33;;;0.33;;
22172;SDS011;11252;50.596;17.648;2023-12-28T13:29:02;0.20;;;0.20;;
22172;SDS011;11252;50.596;17.648;2023-12-28T13:31:31;0.90;;;0.90;;
22172;SDS011;11252;50.596;17.648;2023-12-28T13:33:59;0.60;;;0.60;;
22172;SDS011;11252;50.596;17.648;2023-12-28T13:36:26;4.43;;;0.77;;
22172;SDS011;11252;50.596;17.648;2023-12-28T13:38:55;0.90;;;0.70;;
22172;SDS011;11252;50.596;17.648;2023-12-28T13:41:22;1.50;;;1.40;;
22172;SDS011;11252;50.596;17.648;2023-12-28T13:43:49;1.37;;;1.20;;
22172;SDS011;11252;50.596;17.648;2023-12-28T13:46:16;0.30;;;0.30;;
22172;SDS011;11252;50.596;17.648;2023-12-28T13:48:43;1.20;;;0.83;;
22172;SDS011;11252;50.596;17.648;2023-12-28T13:51:10;2.67;;;2.47;;
22172;SDS011;11252;50.596;17.648;2023-12-28T13:53:37;0.93;;;0.90;;
22172;SDS011;11252;50.596;17.648;2023-12-28T13:56:07;0.50;;;0.50;;
22172;SDS011;11252;50.596;17.648;2023-12-28T13:58:37;1.00;;;1.00;;
22172;SDS011;11252;50.596;17.648;2023-12-28T14:01:04;2.20;;;2.00;;
22172;SDS011;11252;50.596;17.648;2023-12-28T14:03:32;1.47;;;1.37;;
22172;SDS011;11252;50.596;17.648;2023-12-28T14:05:59;5.13;;;3.63;;
22172;SDS011;11252;50.596;17.648;2023-12-28T14:08:26;1.33;;;1.13;;
22172;SDS011;11252;50.596;17.648;2023-12-28T14:10:53;3.90;;;2.93;;
22172;SDS011;11252;50.596;17.648;2023-12-28T14:13:20;1.50;;;1.40;;
22172;SDS011;11252;50.596;17.648;2023-12-28T14:15:48;2.47;;;1.33;;
22172;SDS011;11252;50.596;17.648;2023-12-28T14:18:15;4.40;;;1.50;;
22172;SDS011;11252;50.596;17.648;2023-12-28T14:20:43;0.60;;;0.47;;
22172;SDS011;11252;50.596;17.648;2023-12-28T14:23:10;3.30;;;3.00;;
22172;SDS011;11252;50.596;17.648;2023-12-28T14:25:39;50.07;;;22.63;;
22172;SDS011;11252;50.596;17.648;2023-12-28T14:28:06;7.37;;;4.87;;
22172;SDS011;11252;50.596;17.648;2023-12-28T14:30:34;9.20;;;5.50;;
22172;SDS011;11252;50.596;17.648;2023-12-28T14:33:02;6.67;;;6.07;;
22172;SDS011;11252;50.596;17.648;2023-12-28T14:35:30;5.97;;;5.50;;
22172;SDS011;11252;50.596;17.648;2023-12-28T14:37:57;1.23;;;1.20;;
22172;SDS011;11252;50.596;17.648;2023-12-28T14:40:25;2.77;;;2.53;;
22172;SDS011;11252;50.596;17.648;2023-12-28T14:42:52;1.10;;;1.10;;
22172;SDS011;11252;50.596;17.648;2023-12-28T14:45:19;0.40;;;0.40;;
22172;SDS011;11252;50.596;17.648;2023-12-28T14:47:46;0.97;;;0.93;;
22172;SDS011;11252;50.596;17.648;2023-12-28T14:50:13;2.57;;;1.30;;